createdAt,value
2019-03-05T00:01:44.487Z,97372.70
2019-03-05T00:05:50.262Z,97373.58
2019-03-05T00:09:55.952Z,97372.50
2019-03-05T00:14:01.628Z,97387.54
2019-03-05T00:18:07.703Z,97398.88
2019-03-05T00:22:13.406Z,97392.52
2019-03-05T00:26:32.641Z,97398.44
2019-03-05T00:30:46.330Z,97391.59
2019-03-05T00:35:10.582Z,97397.45
2019-03-05T00:39:41.615Z,97406.72
2019-03-05T00:43:57.433Z,97409.61
2019-03-05T00:48:19.252Z,97415.02
2019-03-05T00:52:47.518Z,97418.77
2019-03-05T00:57:03.342Z,97414.47
2019-03-05T01:01:38.843Z,97418.44
2019-03-05T01:06:17.270Z,97427.33
2019-03-05T01:10:23.246Z,97435.36
2019-03-05T01:14:29.096Z,97431.08
2019-03-05T01:18:34.864Z,97429.88
2019-03-05T01:22:40.592Z,97436.98
2019-03-05T01:26:46.321Z,97434.48
2019-03-05T01:31:11.577Z,97436.82
2019-03-05T01:35:18.980Z,97441.67
2019-03-05T01:39:26.371Z,97433.41
2019-03-05T01:43:32.054Z,97430.88
2019-03-05T01:47:37.736Z,97435.80
2019-03-05T01:51:43.449Z,97437.38
2019-03-05T01:55:49.178Z,97431.08
2019-03-05T01:59:54.854Z,97429.27
2019-03-05T02:04:00.701Z,97438.66
2019-03-05T02:08:06.556Z,97436.39
2019-03-05T02:12:12.680Z,97429.13
2019-03-05T02:16:18.360Z,97425.86
2019-03-05T02:20:25.981Z,97437.24
2019-03-05T02:25:04.886Z,97431.63
2019-03-05T02:29:15.108Z,97426.13
2019-03-05T02:33:40.344Z,97419.88
2019-03-05T02:38:08.896Z,97414.56
2019-03-05T02:42:47.975Z,97415.28
2019-03-05T02:47:05.341Z,97409.48
2019-03-05T02:51:24.217Z,97402.92
2019-03-05T02:55:56.901Z,97402.99
2019-03-05T03:00:02.586Z,97405.20
2019-03-05T03:04:11.147Z,97394.16
2019-03-05T03:08:16.837Z,97394.09
2019-03-05T03:12:22.510Z,97395.92
2019-03-05T03:16:28.213Z,97388.98
2019-03-05T03:20:33.906Z,97386.30
2019-03-05T03:24:40.208Z,97393.70
2019-03-05T03:28:45.902Z,97393.62
2019-03-05T03:32:53.519Z,97410.58
2019-03-05T03:36:59.167Z,97424.98
2019-03-05T03:41:05.396Z,97418.20
2019-03-05T03:45:21.677Z,97426.41
2019-03-05T03:49:27.348Z,97433.50
2019-03-05T03:53:33.040Z,97415.18
2019-03-05T03:57:38.860Z,97417.88
2019-03-05T04:01:44.599Z,97413.08
2019-03-05T04:05:50.382Z,97411.43
2019-03-05T04:09:56.063Z,97407.28
2019-03-05T04:14:01.749Z,97418.56
2019-03-05T04:18:07.428Z,97424.03
2019-03-05T04:22:13.123Z,97423.08
2019-03-05T04:26:18.797Z,97418.23
2019-03-05T04:30:24.477Z,97420.27
2019-03-05T04:34:30.156Z,97425.97
2019-03-05T04:38:35.821Z,97419.32
2019-03-05T04:42:41.640Z,97416.52
2019-03-05T04:46:49.205Z,97413.69
2019-03-05T04:51:05.481Z,97417.17
2019-03-05T04:55:11.269Z,97413.05
2019-03-05T04:59:19.349Z,97409.83
2019-03-05T05:03:25.105Z,97411.11
2019-03-05T05:07:30.784Z,97420.04
2019-03-05T05:11:36.537Z,97417.94
2019-03-05T05:15:42.209Z,97428.15
2019-03-05T05:19:47.880Z,97437.83
2019-03-05T05:23:53.589Z,97430.48
2019-03-05T05:27:59.277Z,97425.77
2019-03-05T05:32:05.273Z,97422.84
2019-03-05T05:36:11.935Z,97422.97
2019-03-05T05:40:26.822Z,97423.63
2019-03-05T05:44:32.487Z,97429.73
2019-03-05T05:48:38.219Z,97425.91
2019-03-05T05:52:43.901Z,97425.08
2019-03-05T05:56:49.755Z,97422.74
2019-03-05T06:00:57.134Z,97414.70
2019-03-05T06:05:02.803Z,97413.50
2019-03-05T06:09:08.491Z,97415.86
2019-03-05T06:13:14.257Z,97420.89
2019-03-05T06:17:19.944Z,97431.13
2019-03-05T06:21:25.593Z,97426.77
2019-03-05T06:25:31.343Z,97429.16
2019-03-05T06:29:37.007Z,97429.31
2019-03-05T06:33:42.714Z,97418.31
2019-03-05T06:37:48.472Z,97408.64
2019-03-05T06:41:54.164Z,97406.17
2019-03-05T06:45:59.890Z,97399.02
2019-03-05T06:50:09.245Z,97409.09
2019-03-05T06:54:14.918Z,97416.50
2019-03-05T06:58:20.597Z,97423.59
2019-03-05T07:02:26.293Z,97430.32
2019-03-05T07:06:52.241Z,97441.16
2019-03-05T07:11:24.705Z,97453.67
2019-03-05T07:15:46.813Z,97456.63
2019-03-05T07:20:15.014Z,97467.12
2019-03-05T07:24:45.015Z,97473.30
2019-03-05T07:28:50.703Z,97465.11
2019-03-05T07:32:56.455Z,97478.24
2019-03-05T07:37:02.355Z,97471.27
2019-03-05T07:41:08.111Z,97466.56
2019-03-05T07:45:14.911Z,97473.04
2019-03-05T07:49:20.583Z,97473.84
2019-03-05T07:53:26.272Z,97480.56
2019-03-05T07:57:31.968Z,97467.30
2019-03-05T08:01:37.723Z,97465.09
2019-03-05T08:05:43.481Z,97466.45
2019-03-05T08:09:49.200Z,97460.80
2019-03-05T08:14:16.007Z,97465.35
2019-03-05T08:18:21.701Z,97473.37
2019-03-05T08:22:27.525Z,97480.30
2019-03-05T08:26:33.211Z,97480.52
2019-03-05T08:30:38.883Z,97479.64
2019-03-05T08:34:44.582Z,97501.25
2019-03-05T08:38:50.396Z,97503.60
2019-03-05T08:42:56.101Z,97508.37
2019-03-05T08:47:01.938Z,97515.13
2019-03-05T08:51:07.689Z,97520.04
2019-03-05T08:55:13.919Z,97535.34
2019-03-05T08:59:19.708Z,97522.88
2019-03-05T09:03:25.396Z,97531.72
2019-03-05T09:07:31.143Z,97520.72
2019-03-05T09:11:36.981Z,97541.59
2019-03-05T09:15:42.755Z,97559.91
2019-03-05T09:19:48.447Z,97537.20
2019-03-05T09:23:54.275Z,97532.48
2019-03-05T09:27:59.952Z,97541.38
2019-03-05T09:32:05.777Z,97538.28
2019-03-05T09:36:11.485Z,97547.77
2019-03-05T09:40:26.373Z,97536.87
2019-03-05T09:44:32.061Z,97531.95
2019-03-05T09:48:37.756Z,97532.68
2019-03-05T09:52:54.186Z,97528.26
2019-03-05T09:56:51.029Z,97506.28
2019-03-05T10:00:57.637Z,97510.16
2019-03-05T10:05:03.504Z,97520.64
2019-03-05T10:09:09.590Z,97527.77
2019-03-05T10:13:15.811Z,97527.86
2019-03-05T10:17:21.516Z,97510.16
2019-03-05T10:21:27.198Z,97501.61
2019-03-05T10:25:33.029Z,97520.22
2019-03-05T10:29:39.172Z,97501.77
2019-03-05T10:33:44.864Z,97524.53
2019-03-05T10:37:51.221Z,97502.55
2019-03-05T10:41:57.178Z,97516.97
2019-03-05T10:51:00.055Z,97497.45
2019-03-05T10:55:25.925Z,97522.81
2019-03-05T10:59:25.238Z,97497.06
2019-03-05T11:03:31.744Z,97510.09
2019-03-05T11:07:37.525Z,97500.13
2019-03-05T11:11:43.302Z,97494.32
2019-03-05T11:15:52.971Z,97491.05
2019-03-05T11:19:59.815Z,97501.37
2019-03-05T11:24:06.590Z,97495.17
2019-03-05T11:28:12.399Z,97493.97
2019-03-05T11:32:19.149Z,97478.19
2019-03-05T11:36:25.966Z,97470.45
2019-03-05T11:40:32.657Z,97472.06
2019-03-05T11:44:38.420Z,97477.87
2019-03-05T11:48:44.188Z,97473.53
2019-03-05T11:52:55.139Z,97471.72
2019-03-05T11:57:01.690Z,97458.97
2019-03-05T12:01:10.296Z,97474.70
2019-03-05T12:05:16.139Z,97485.85
2019-03-05T12:09:21.916Z,97472.75
2019-03-05T12:13:27.635Z,97475.24
2019-03-05T12:17:33.346Z,97480.11
2019-03-05T12:21:39.032Z,97482.78
2019-03-05T12:25:44.801Z,97470.96
2019-03-05T12:29:50.513Z,97467.08
2019-03-05T12:33:56.256Z,97469.03
2019-03-05T12:38:02.928Z,97463.17
2019-03-05T12:42:08.695Z,97459.95
2019-03-05T12:46:14.493Z,97458.61
2019-03-05T12:50:28.679Z,97466.56
2019-03-05T12:54:34.367Z,97471.63
2019-03-05T12:58:40.146Z,97467.21
2019-03-05T13:02:46.189Z,97460.03
2019-03-05T13:06:52.011Z,97474.84
2019-03-05T13:10:57.713Z,97472.58
2019-03-05T13:15:03.459Z,97474.51
2019-03-05T13:19:10.940Z,97479.07
2019-03-05T13:23:18.418Z,97479.21
2019-03-05T13:27:24.108Z,97485.06
2019-03-05T13:31:29.804Z,97485.73
2019-03-05T13:35:35.556Z,97485.49
2019-03-05T13:39:41.237Z,97509.41
2019-03-05T13:43:46.996Z,97514.61
2019-03-05T13:48:02.974Z,97513.20
2019-03-05T13:52:39.886Z,97522.45
2019-03-05T13:57:07.942Z,97541.61
2019-03-05T14:01:14.355Z,97541.57
2019-03-05T14:05:36.482Z,97537.80
2019-03-05T14:09:40.458Z,97545.48
2019-03-05T14:13:46.162Z,97541.52
2019-03-05T14:17:54.527Z,97553.25
2019-03-05T14:22:01.653Z,97548.46
2019-03-05T14:26:07.421Z,97550.02
2019-03-05T14:30:22.005Z,97544.05
2019-03-05T14:34:27.808Z,97553.53
2019-03-05T14:38:34.568Z,97563.06
2019-03-05T14:42:40.272Z,97568.48
2019-03-05T14:46:56.325Z,97566.32
2019-03-05T14:51:02.024Z,97574.97
2019-03-05T14:55:10.751Z,97583.34
2019-03-05T14:59:16.511Z,97585.81
2019-03-05T15:03:22.228Z,97594.27
2019-03-05T15:07:27.980Z,97599.40
2019-03-05T15:11:33.667Z,97607.05
2019-03-05T15:15:39.466Z,97618.67
2019-03-05T15:19:45.132Z,97623.19
2019-03-05T15:23:50.858Z,97630.73
2019-03-05T15:27:56.616Z,97635.91
2019-03-05T15:32:02.354Z,97648.48
2019-03-05T15:36:08.042Z,97648.98
2019-03-05T15:40:18.480Z,97660.87
2019-03-05T15:44:24.168Z,97656.73
2019-03-05T15:48:29.837Z,97666.30
2019-03-05T15:52:35.584Z,97671.98
2019-03-05T15:56:41.239Z,97666.14
2019-03-05T16:00:47.068Z,97673.02
2019-03-05T16:04:52.769Z,97669.28
2019-03-05T16:09:02.258Z,97678.58
2019-03-05T16:13:05.999Z,97677.27
2019-03-05T16:17:18.639Z,97677.23
2019-03-05T16:21:24.454Z,97677.56
2019-03-05T16:25:30.197Z,97679.16
2019-03-05T16:29:36.158Z,97691.91
2019-03-05T16:33:55.287Z,97698.32
2019-03-05T16:38:15.074Z,97690.35
2019-03-05T16:42:24.294Z,97670.13
2019-03-05T16:46:34.317Z,97669.09
2019-03-05T16:50:57.565Z,97664.38
2019-03-05T16:55:23.537Z,97658.00
2019-03-05T16:59:39.640Z,97649.19
2019-03-05T17:03:49.693Z,97683.84
2019-03-05T17:08:02.991Z,97694.38
2019-03-05T17:12:08.899Z,97713.49
2019-03-05T17:16:14.751Z,97718.95
2019-03-05T17:20:20.675Z,97735.25
2019-03-05T17:24:26.651Z,97750.14
2019-03-05T17:28:32.605Z,97745.02
2019-03-05T17:32:39.588Z,97746.92
2019-03-05T17:36:45.282Z,97732.90
2019-03-05T17:40:51.115Z,97726.41
2019-03-05T17:44:56.949Z,97749.56
2019-03-05T17:49:03.728Z,97754.41
2019-03-05T17:53:09.666Z,97752.52
2019-03-05T17:57:15.501Z,97755.63
2019-03-05T18:01:21.350Z,97778.23
2019-03-05T18:05:27.332Z,97776.08
2019-03-05T18:09:33.205Z,97786.53
2019-03-05T18:13:39.103Z,97795.91
2019-03-05T18:17:45.092Z,97806.20
2019-03-05T18:21:50.854Z,97816.03
2019-03-05T18:25:56.665Z,97829.28
2019-03-05T18:30:02.642Z,97828.91
2019-03-05T18:34:08.790Z,97825.75
2019-03-05T18:38:14.554Z,97827.83
2019-03-05T18:42:20.412Z,97839.02
2019-03-05T18:46:26.251Z,97842.00
2019-03-05T18:50:32.030Z,97854.08
2019-03-05T18:54:37.846Z,97842.71
2019-03-05T18:58:44.506Z,97845.86
2019-03-05T19:02:51.823Z,97842.77
2019-03-05T19:06:57.661Z,97845.86
2019-03-05T19:11:03.528Z,97853.91
2019-03-05T19:15:14.913Z,97857.96
2019-03-05T19:19:20.598Z,97863.10
2019-03-05T19:23:26.330Z,97861.82
2019-03-05T19:27:32.162Z,97861.42
2019-03-05T19:31:37.975Z,97868.02
2019-03-05T19:35:44.046Z,97876.48
2019-03-05T19:39:49.791Z,97884.30
2019-03-05T19:43:55.875Z,97881.09
2019-03-05T19:48:01.733Z,97878.41
2019-03-05T19:52:08.578Z,97879.61
2019-03-05T19:56:14.500Z,97887.89
2019-03-05T20:00:37.653Z,97883.92
2019-03-05T20:04:43.747Z,97886.42
2019-03-05T20:08:49.501Z,97894.66
2019-03-05T20:12:59.539Z,97896.00
2019-03-05T20:17:05.572Z,97897.52
2019-03-05T20:21:11.398Z,97889.52
2019-03-05T20:25:26.592Z,97894.82
2019-03-05T20:29:32.514Z,97892.64
2019-03-05T20:33:38.435Z,97896.14
2019-03-05T20:37:44.427Z,97900.81
2019-03-05T20:41:50.440Z,97900.44
2019-03-05T20:46:19.423Z,97897.34
2019-03-05T20:50:25.367Z,97897.94
2019-03-05T20:54:31.152Z,97891.31
2019-03-05T20:58:36.852Z,97889.81
2019-03-05T21:02:42.660Z,97889.94
2019-03-05T21:06:48.650Z,97893.45
2019-03-05T21:10:54.567Z,97887.92
2019-03-05T21:15:00.341Z,97893.80
2019-03-05T21:19:07.563Z,97897.34
2019-03-05T21:23:13.425Z,97886.09
2019-03-05T21:27:19.107Z,97886.06
2019-03-05T21:31:24.824Z,97888.94
2019-03-05T21:35:30.517Z,97883.16
2019-03-05T21:39:36.277Z,97875.16
2019-03-05T21:43:41.962Z,97876.63
2019-03-05T21:47:47.687Z,97874.95
2019-03-05T21:51:53.752Z,97870.02
2019-03-05T21:56:00.581Z,97868.02
2019-03-05T22:00:17.590Z,97872.73
2019-03-05T22:04:23.342Z,97876.34
2019-03-05T22:08:29.000Z,97868.40
2019-03-05T22:12:34.824Z,97876.95
2019-03-05T22:16:40.867Z,97881.72
2019-03-05T22:20:46.536Z,97875.61
2019-03-05T22:24:52.217Z,97881.26
2019-03-05T22:28:58.045Z,97874.02
2019-03-05T22:33:03.859Z,97868.92
2019-03-05T22:37:09.547Z,97869.31
2019-03-05T22:41:15.357Z,97864.45
2019-03-05T22:45:31.377Z,97859.70
2019-03-05T22:49:37.027Z,97861.30
2019-03-05T22:53:42.714Z,97869.83
2019-03-05T22:57:50.175Z,97869.97
2019-03-05T23:01:56.259Z,97866.70
2019-03-05T23:06:06.341Z,97869.58
2019-03-05T23:10:18.142Z,97869.95
2019-03-05T23:14:24.395Z,97869.75
2019-03-05T23:18:30.242Z,97858.30
2019-03-05T23:22:36.270Z,97861.56
2019-03-05T23:26:42.071Z,97858.35
2019-03-05T23:30:47.747Z,97858.30
2019-03-05T23:34:54.559Z,97853.91
2019-03-05T23:39:00.589Z,97847.41
2019-03-05T23:43:07.949Z,97838.38
2019-03-05T23:47:13.767Z,97837.55
2019-03-05T23:51:20.589Z,97824.99
2019-03-05T23:55:26.282Z,97820.92
2019-03-05T23:59:31.965Z,97826.00
